createdAt,value
2019-01-17T00:03:00.274Z,49.00
2019-01-17T00:05:45.613Z,50.83
2019-01-17T00:08:55.113Z,61.47
2019-01-17T00:11:46.732Z,47.10
2019-01-17T00:14:28.323Z,46.40
2019-01-17T00:17:24.778Z,27.93
2019-01-17T00:20:25.178Z,42.07
2019-01-17T00:23:23.471Z,44.20
2019-01-17T00:26:07.991Z,33.47
2019-01-17T00:28:56.780Z,29.27
2019-01-17T00:31:38.185Z,41.67
2019-01-17T00:34:50.351Z,33.90
2019-01-17T00:37:44.740Z,29.87
2019-01-17T00:40:42.357Z,32.53
2019-01-17T00:43:37.096Z,29.10
2019-01-17T00:46:30.976Z,49.33
2019-01-17T00:49:30.951Z,36.03
2019-01-17T00:52:31.342Z,30.87
2019-01-17T00:55:25.514Z,28.93
2019-01-17T00:58:28.095Z,26.20
2019-01-17T01:01:28.391Z,38.07
2019-01-17T01:04:20.061Z,33.57
2019-01-17T01:07:12.663Z,32.37
2019-01-17T01:10:09.217Z,27.47
2019-01-17T01:13:03.821Z,28.73
2019-01-17T01:16:00.947Z,36.63
2019-01-17T01:18:49.934Z,28.60
2019-01-17T01:21:42.365Z,41.23
2019-01-17T01:24:36.599Z,40.60
2019-01-17T01:27:33.910Z,27.13
2019-01-17T01:30:28.169Z,30.43
2019-01-17T01:33:19.838Z,25.93
2019-01-17T01:36:11.107Z,20.03
2019-01-17T01:39:11.254Z,19.83
2019-01-17T01:41:56.189Z,11.80
2019-01-17T01:44:51.823Z,20.47
2019-01-17T01:47:44.106Z,28.60
2019-01-17T01:50:41.605Z,23.23
2019-01-17T01:53:15.011Z,19.97
2019-01-17T01:55:48.934Z,25.93
2019-01-17T01:58:22.294Z,17.50
2019-01-17T02:00:56.205Z,14.67
2019-01-17T02:03:30.253Z,20.60
2019-01-17T02:06:03.952Z,14.67
2019-01-17T02:08:37.522Z,14.90
2019-01-17T02:11:11.176Z,10.17
2019-01-17T02:13:45.625Z,12.80
2019-01-17T02:16:18.592Z,16.37
2019-01-17T02:18:52.143Z,20.53
2019-01-17T02:21:25.606Z,19.20
2019-01-17T02:23:59.202Z,12.50
2019-01-17T02:26:32.703Z,21.10
2019-01-17T02:29:06.420Z,18.33
2019-01-17T02:31:39.995Z,16.47
2019-01-17T02:34:14.080Z,9.50
2019-01-17T02:36:47.853Z,8.27
2019-01-17T02:39:21.869Z,4.67
2019-01-17T02:41:55.464Z,8.73
2019-01-17T02:44:30.096Z,11.37
2019-01-17T02:47:03.295Z,4.90
2019-01-17T02:49:37.379Z,7.00
2019-01-17T02:52:10.921Z,11.43
2019-01-17T02:54:44.491Z,16.73
2019-01-17T02:57:17.985Z,20.23
2019-01-17T02:59:51.978Z,19.13
2019-01-17T03:02:25.394Z,13.57
2019-01-17T03:04:59.349Z,7.50
2019-01-17T03:07:33.072Z,15.60
2019-01-17T03:10:07.813Z,9.60
2019-01-17T03:12:41.319Z,21.37
2019-01-17T03:15:15.339Z,10.33
2019-01-17T03:17:48.759Z,12.87
2019-01-17T03:20:23.165Z,16.07
2019-01-17T03:22:56.775Z,10.60
2019-01-17T03:25:30.861Z,10.63
2019-01-17T03:28:04.281Z,11.93
2019-01-17T03:30:39.322Z,10.53
2019-01-17T03:33:12.879Z,19.07
2019-01-17T03:35:46.841Z,17.97
2019-01-17T03:38:20.481Z,13.67
2019-01-17T03:40:55.661Z,10.93
2019-01-17T03:43:29.004Z,9.37
2019-01-17T03:46:03.476Z,5.80
2019-01-17T03:48:36.916Z,5.43
2019-01-17T03:51:10.415Z,5.70
2019-01-17T03:53:43.562Z,4.70
2019-01-17T03:56:21.606Z,28.93
2019-01-17T03:58:52.469Z,27.53
2019-01-17T04:01:25.457Z,12.57
2019-01-17T04:04:05.115Z,14.67
2019-01-17T04:06:38.681Z,18.20
2019-01-17T04:09:12.354Z,17.53
2019-01-17T04:11:45.963Z,10.17
2019-01-17T04:14:19.577Z,28.17
2019-01-17T04:16:53.156Z,42.97
2019-01-17T04:19:28.932Z,29.90
2019-01-17T04:22:02.436Z,18.50
2019-01-17T04:24:36.098Z,30.77
2019-01-17T04:27:09.590Z,21.90
2019-01-17T04:29:43.084Z,18.33
2019-01-17T04:32:17.443Z,18.93
2019-01-17T04:34:50.953Z,17.03
2019-01-17T04:37:24.697Z,11.03
2019-01-17T04:39:58.456Z,16.73
2019-01-17T04:42:32.899Z,16.13
2019-01-17T04:45:07.923Z,20.87
2019-01-17T04:47:42.428Z,17.27
2019-01-17T04:50:16.677Z,29.90
2019-01-17T04:52:50.473Z,23.47
2019-01-17T04:55:24.028Z,27.13
2019-01-17T04:57:57.768Z,35.10
2019-01-17T05:00:31.370Z,32.17
2019-01-17T05:03:04.902Z,27.23
2019-01-17T05:05:38.440Z,25.03
2019-01-17T05:08:12.080Z,22.73
2019-01-17T05:10:46.639Z,33.77
2019-01-17T05:13:20.539Z,22.70
2019-01-17T05:15:53.955Z,18.93
2019-01-17T05:18:27.409Z,29.13
2019-01-17T05:21:00.856Z,39.00
2019-01-17T05:23:34.669Z,54.83
2019-01-17T05:26:08.743Z,43.63
2019-01-17T05:28:42.777Z,34.53
2019-01-17T05:31:16.275Z,40.33
2019-01-17T05:33:50.198Z,39.20
2019-01-17T05:36:25.789Z,51.47
2019-01-17T05:38:59.357Z,38.13
2019-01-17T05:41:33.110Z,30.30
2019-01-17T05:44:06.899Z,40.57
2019-01-17T05:46:40.629Z,39.67
2019-01-17T05:49:15.079Z,48.60
2019-01-17T05:51:48.562Z,62.00
2019-01-17T05:54:22.267Z,55.80
2019-01-17T05:56:55.770Z,55.13
2019-01-17T05:59:30.641Z,66.80
2019-01-17T06:02:04.311Z,58.97
2019-01-17T06:04:37.529Z,60.40
2019-01-17T06:07:11.185Z,65.47
2019-01-17T06:09:47.660Z,56.80
2019-01-17T06:12:21.296Z,78.23
2019-01-17T06:14:55.101Z,50.83
2019-01-17T06:17:28.742Z,56.93
2019-01-17T06:20:02.609Z,65.73
2019-01-17T06:22:37.980Z,86.40
2019-01-17T06:25:12.168Z,69.00
2019-01-17T06:27:45.772Z,90.27
2019-01-17T06:30:19.667Z,78.33
2019-01-17T06:32:53.413Z,92.10
2019-01-17T06:35:27.535Z,87.97
2019-01-17T06:38:01.419Z,78.10
2019-01-17T06:40:35.723Z,74.73
2019-01-17T06:43:09.557Z,87.27
2019-01-17T06:45:43.300Z,78.33
2019-01-17T06:48:16.805Z,62.00
2019-01-17T06:50:51.816Z,75.50
2019-01-17T06:53:25.455Z,67.87
2019-01-17T06:55:59.463Z,73.13
2019-01-17T06:58:33.130Z,67.30
2019-01-17T07:01:07.168Z,78.00
2019-01-17T07:03:41.269Z,54.50
2019-01-17T07:06:15.198Z,57.20
2019-01-17T07:08:49.786Z,52.83
2019-01-17T07:11:23.922Z,53.97
2019-01-17T07:13:58.655Z,53.23
2019-01-17T07:16:32.596Z,59.00
2019-01-17T07:19:06.597Z,64.10
2019-01-17T07:21:40.515Z,42.23
2019-01-17T07:24:15.045Z,57.47
2019-01-17T07:26:50.069Z,62.57
2019-01-17T07:29:24.734Z,56.00
2019-01-17T07:31:59.477Z,51.60
2019-01-17T07:34:33.189Z,47.80
2019-01-17T07:37:07.077Z,51.60
2019-01-17T07:39:40.906Z,53.20
2019-01-17T07:42:14.901Z,43.57
2019-01-17T07:44:49.772Z,42.33
2019-01-17T07:47:23.813Z,50.73
2019-01-17T07:49:56.942Z,43.43
2019-01-17T07:52:34.613Z,80.93
2019-01-17T07:55:09.259Z,46.50
2019-01-17T07:57:42.941Z,37.03
2019-01-17T08:00:19.774Z,36.80
2019-01-17T08:02:55.557Z,26.27
2019-01-17T08:05:29.300Z,24.40
2019-01-17T08:08:03.255Z,34.73
2019-01-17T08:10:37.025Z,37.37
2019-01-17T08:13:11.416Z,32.93
2019-01-17T08:15:45.431Z,40.57
2019-01-17T08:18:20.173Z,45.20
2019-01-17T08:20:54.137Z,36.70
2019-01-17T08:23:34.550Z,29.90
2019-01-17T08:26:04.035Z,40.03
2019-01-17T08:28:37.901Z,35.00
2019-01-17T08:31:12.310Z,43.20
2019-01-17T08:33:46.858Z,64.70
2019-01-17T08:36:20.749Z,47.50
2019-01-17T08:38:55.427Z,29.40
2019-01-17T08:41:27.837Z,67.37
2019-01-17T08:44:01.949Z,38.23
2019-01-17T08:46:35.748Z,46.63
2019-01-17T08:49:09.331Z,34.40
2019-01-17T08:51:46.719Z,38.13
2019-01-17T08:54:21.348Z,56.70
2019-01-17T08:56:55.902Z,39.70
2019-01-17T08:59:30.221Z,36.27
2019-01-17T09:02:03.663Z,49.17
2019-01-17T09:04:37.539Z,34.60
2019-01-17T09:07:12.605Z,28.27
2019-01-17T09:09:46.577Z,28.73
2019-01-17T09:12:20.173Z,22.63
2019-01-17T09:14:54.232Z,32.33
2019-01-17T09:17:28.100Z,23.17
2019-01-17T09:20:01.382Z,22.80
2019-01-17T09:22:35.349Z,21.13
2019-01-17T09:25:10.840Z,27.70
2019-01-17T09:27:44.605Z,22.57
2019-01-17T09:30:21.266Z,26.30
2019-01-17T09:32:55.323Z,13.83
2019-01-17T09:35:29.352Z,20.53
2019-01-17T09:38:04.851Z,29.97
2019-01-17T09:40:39.266Z,22.20
2019-01-17T09:43:14.833Z,13.90
2019-01-17T09:45:49.245Z,20.80
2019-01-17T09:48:24.307Z,21.20
2019-01-17T09:50:59.169Z,27.03
2019-01-17T09:53:33.183Z,29.37
2019-01-17T09:56:14.804Z,15.43
2019-01-17T09:58:46.390Z,8.33
2019-01-17T10:01:21.147Z,11.53
2019-01-17T10:03:55.597Z,30.40
2019-01-17T10:06:31.545Z,15.83
2019-01-17T10:09:06.729Z,14.00
2019-01-17T10:11:40.566Z,6.80
2019-01-17T10:14:14.355Z,4.57
2019-01-17T10:17:01.776Z,3.70
2019-01-17T10:20:11.057Z,5.60
2019-01-17T10:23:30.055Z,24.17
2019-01-17T10:26:48.971Z,34.03
2019-01-17T10:29:46.273Z,32.97
2019-01-17T10:33:04.329Z,17.20
2019-01-17T10:35:53.893Z,1.70
2019-01-17T10:39:06.450Z,7.57
2019-01-17T10:42:07.465Z,18.47
2019-01-17T10:45:17.804Z,17.70
2019-01-17T10:48:32.446Z,14.87
2019-01-17T10:51:36.535Z,7.53
2019-01-17T10:54:48.704Z,14.93
2019-01-17T10:57:50.504Z,9.33
2019-01-17T11:00:58.170Z,3.40
2019-01-17T11:03:56.832Z,3.77
2019-01-17T11:07:04.452Z,2.13
2019-01-17T11:10:01.442Z,5.43
2019-01-17T11:13:01.955Z,3.43
2019-01-17T11:16:08.146Z,4.77
2019-01-17T11:19:04.598Z,7.27
2019-01-17T11:22:05.413Z,8.60
2019-01-17T11:25:02.359Z,8.30
2019-01-17T11:28:14.172Z,13.13
2019-01-17T11:31:16.217Z,13.00
2019-01-17T11:34:46.735Z,6.87
2019-01-17T11:38:00.955Z,6.27
2019-01-17T11:41:19.570Z,10.07
2019-01-17T11:44:35.170Z,9.70
2019-01-17T11:47:54.189Z,11.20
2019-01-17T11:50:50.357Z,9.17
2019-01-17T11:53:35.387Z,6.23
2019-01-17T11:56:45.363Z,9.80
2019-01-17T11:59:45.409Z,12.67
2019-01-17T12:02:40.251Z,17.13
2019-01-17T12:05:14.309Z,15.33
2019-01-17T12:07:48.777Z,8.47
2019-01-17T12:10:22.339Z,10.13
2019-01-17T12:12:57.404Z,8.67
2019-01-17T12:15:31.441Z,12.80
2019-01-17T12:18:06.178Z,13.73
2019-01-17T12:20:39.014Z,6.60
2019-01-17T12:23:13.534Z,11.33
2019-01-17T12:25:47.255Z,12.03
2019-01-17T12:28:21.459Z,23.50
2019-01-17T12:30:55.405Z,16.20
2019-01-17T12:33:29.503Z,15.63
2019-01-17T12:36:03.742Z,9.73
2019-01-17T12:38:38.176Z,22.22
2019-01-17T12:41:13.563Z,16.10
2019-01-17T12:43:47.753Z,12.17
2019-01-17T12:46:21.103Z,19.17
2019-01-17T12:48:56.357Z,20.40
2019-01-17T12:51:31.632Z,12.13
2019-01-17T12:54:05.680Z,10.70
2019-01-17T12:56:42.137Z,9.27
2019-01-17T12:59:19.232Z,10.40
2019-01-17T13:01:57.432Z,11.80
2019-01-17T13:04:31.972Z,21.70
2019-01-17T13:07:05.477Z,27.60
2019-01-17T13:09:40.477Z,17.73
2019-01-17T13:12:13.911Z,34.13
2019-01-17T13:14:49.690Z,21.60
2019-01-17T13:17:24.998Z,21.97
2019-01-17T13:19:58.362Z,12.07
2019-01-17T13:22:31.945Z,11.03
2019-01-17T13:25:06.639Z,26.50
2019-01-17T13:27:42.360Z,18.90
2019-01-17T13:30:21.301Z,17.67
2019-01-17T13:32:57.241Z,24.87
2019-01-17T13:35:32.191Z,30.63
2019-01-17T13:38:06.505Z,23.87
2019-01-17T13:40:40.275Z,21.43
2019-01-17T13:43:14.077Z,19.77
2019-01-17T13:45:48.909Z,25.70
2019-01-17T13:48:28.697Z,8.80
2019-01-17T13:51:02.930Z,23.33
2019-01-17T13:53:36.036Z,9.33
2019-01-17T13:56:10.087Z,11.33
2019-01-17T13:58:47.158Z,13.20
2019-01-17T14:01:22.033Z,17.47
2019-01-17T14:03:57.530Z,27.20
2019-01-17T14:06:34.900Z,24.67
2019-01-17T14:09:10.943Z,14.47
2019-01-17T14:11:45.682Z,23.87
2019-01-17T14:14:19.369Z,37.73
2019-01-17T14:16:51.684Z,13.00
2019-01-17T14:19:26.946Z,25.10
2019-01-17T14:22:03.375Z,15.47
2019-01-17T14:24:37.707Z,32.80
2019-01-17T14:27:14.118Z,25.07
2019-01-17T14:29:48.149Z,26.53
2019-01-17T14:32:21.926Z,33.43
2019-01-17T14:34:56.715Z,40.17
2019-01-17T14:37:31.098Z,25.80
2019-01-17T14:40:06.866Z,10.03
2019-01-17T14:42:42.011Z,9.13
2019-01-17T14:45:18.882Z,12.20
2019-01-17T14:47:55.125Z,28.50
2019-01-17T14:50:31.769Z,30.57
2019-01-17T14:53:06.433Z,24.10
2019-01-17T14:55:40.357Z,27.87
2019-01-17T14:58:15.369Z,17.20
2019-01-17T15:00:50.158Z,45.40
2019-01-17T15:03:24.490Z,44.53
2019-01-17T15:05:58.507Z,71.83
2019-01-17T15:08:34.346Z,63.53
2019-01-17T15:11:08.195Z,100.83
2019-01-17T15:13:42.034Z,35.43
2019-01-17T15:16:16.571Z,37.17
2019-01-17T15:18:51.025Z,54.27
2019-01-17T15:21:24.687Z,70.43
2019-01-17T15:23:58.980Z,51.73
2019-01-17T15:26:32.383Z,38.93
2019-01-17T15:29:06.143Z,69.27
2019-01-17T15:31:40.772Z,64.87
2019-01-17T15:34:17.794Z,102.10
2019-01-17T15:36:51.696Z,50.03
2019-01-17T15:39:27.406Z,34.80
2019-01-17T15:42:01.025Z,100.40
2019-01-17T15:44:36.606Z,111.07
2019-01-17T15:47:13.271Z,104.70
2019-01-17T15:49:46.051Z,56.27
2019-01-17T15:52:20.397Z,120.43
2019-01-17T15:54:54.711Z,130.90
2019-01-17T15:57:33.884Z,103.50
2019-01-17T16:00:05.583Z,104.03
2019-01-17T16:02:39.543Z,86.23
2019-01-17T16:05:14.230Z,111.87
2019-01-17T16:07:49.686Z,101.60
2019-01-17T16:10:25.117Z,107.97
2019-01-17T16:12:59.703Z,116.30
2019-01-17T16:15:33.051Z,110.73
2019-01-17T16:18:07.025Z,98.27
2019-01-17T16:20:45.773Z,122.23
2019-01-17T16:23:21.357Z,140.13
2019-01-17T16:25:56.029Z,143.00
2019-01-17T16:28:30.705Z,145.07
2019-01-17T16:31:04.789Z,124.23
2019-01-17T16:33:39.595Z,131.83
2019-01-17T16:36:13.394Z,134.47
2019-01-17T16:38:49.306Z,115.80
2019-01-17T16:41:23.928Z,130.23
2019-01-17T16:43:57.100Z,127.90
2019-01-17T16:46:31.902Z,129.27
2019-01-17T16:49:06.648Z,140.53
2019-01-17T16:51:40.771Z,112.23
2019-01-17T16:54:14.451Z,114.03
2019-01-17T16:56:51.175Z,118.73
2019-01-17T16:59:25.276Z,118.13
2019-01-17T17:02:00.737Z,104.30
2019-01-17T17:04:35.520Z,139.40
2019-01-17T17:07:09.593Z,97.23
2019-01-17T17:09:43.688Z,113.90
2019-01-17T17:12:17.763Z,127.73
2019-01-17T17:14:51.538Z,106.33
2019-01-17T17:17:29.337Z,102.07
2019-01-17T17:20:02.987Z,107.23
2019-01-17T17:22:35.666Z,125.33
2019-01-17T17:25:09.943Z,119.37
2019-01-17T17:27:44.411Z,123.47
2019-01-17T17:30:21.905Z,101.87
2019-01-17T17:32:57.580Z,94.30
2019-01-17T17:35:36.791Z,105.27
2019-01-17T17:38:11.550Z,95.63
2019-01-17T17:40:47.851Z,90.87
2019-01-17T17:43:21.872Z,99.80
2019-01-17T17:45:55.551Z,97.67
2019-01-17T17:48:29.578Z,102.60
2019-01-17T17:51:04.410Z,82.87
2019-01-17T17:53:38.267Z,87.57
2019-01-17T17:56:14.220Z,103.57
2019-01-17T17:58:50.364Z,72.87
2019-01-17T18:01:36.638Z,78.27
2019-01-17T18:04:10.552Z,68.30
2019-01-17T18:06:47.238Z,92.13
2019-01-17T18:09:21.126Z,84.00
2019-01-17T18:11:54.880Z,99.83
2019-01-17T18:14:29.049Z,92.70
2019-01-17T18:17:02.606Z,86.97
2019-01-17T18:19:37.038Z,91.93
2019-01-17T18:22:16.090Z,100.33
2019-01-17T18:24:50.808Z,79.73
2019-01-17T18:27:24.470Z,83.47
2019-01-17T18:29:58.327Z,96.93
2019-01-17T18:32:34.355Z,95.23
2019-01-17T18:35:08.592Z,85.93
2019-01-17T18:37:42.388Z,95.67
2019-01-17T18:40:19.271Z,96.80
2019-01-17T18:42:52.897Z,93.50
2019-01-17T18:45:32.738Z,61.80
2019-01-17T18:48:07.021Z,71.13
2019-01-17T18:50:41.224Z,87.27
2019-01-17T18:53:15.023Z,60.23
2019-01-17T18:55:48.944Z,73.63
2019-01-17T18:58:25.722Z,77.37
2019-01-17T19:00:59.660Z,96.87
2019-01-17T19:03:33.446Z,77.40
2019-01-17T19:06:12.596Z,65.53
2019-01-17T19:08:47.063Z,106.57
2019-01-17T19:11:24.346Z,101.63
2019-01-17T19:13:59.111Z,104.23
2019-01-17T19:16:33.544Z,87.73
2019-01-17T19:19:07.346Z,99.43
2019-01-17T19:21:41.641Z,114.50
2019-01-17T19:24:15.317Z,118.87
2019-01-17T19:26:50.145Z,87.63
2019-01-17T19:29:26.789Z,109.30
2019-01-17T19:32:02.311Z,86.63
2019-01-17T19:34:36.199Z,80.43
2019-01-17T19:37:11.801Z,54.60
2019-01-17T19:39:45.899Z,91.00
2019-01-17T19:42:21.415Z,62.40
2019-01-17T19:44:57.255Z,59.63
2019-01-17T19:47:31.381Z,57.57
2019-01-17T19:50:09.253Z,52.17
2019-01-17T19:52:42.964Z,54.63
2019-01-17T19:55:22.072Z,69.47
2019-01-17T19:57:56.908Z,50.40
2019-01-17T20:00:30.142Z,61.93
2019-01-17T20:03:06.837Z,52.50
2019-01-17T20:05:41.691Z,50.10
2019-01-17T20:08:14.023Z,98.97
2019-01-17T20:10:48.370Z,82.27
2019-01-17T20:13:22.439Z,68.17
2019-01-17T20:15:56.612Z,64.83
2019-01-17T20:18:31.246Z,63.67
2019-01-17T20:21:06.051Z,86.17
2019-01-17T20:23:39.947Z,85.67
2019-01-17T20:26:13.583Z,64.17
2019-01-17T20:28:48.994Z,109.57
2019-01-17T20:31:24.408Z,83.40
2019-01-17T20:33:58.231Z,69.77
2019-01-17T20:36:31.896Z,87.77
2019-01-17T20:39:07.245Z,90.83
2019-01-17T20:41:42.282Z,68.80
2019-01-17T20:44:16.744Z,49.83
2019-01-17T20:46:50.744Z,51.37
2019-01-17T20:49:24.888Z,67.27
2019-01-17T20:51:58.668Z,80.17
2019-01-17T20:54:33.567Z,48.33
2019-01-17T20:57:08.770Z,49.47
2019-01-17T20:59:42.283Z,30.37
2019-01-17T21:02:18.938Z,45.37
2019-01-17T21:04:53.717Z,32.23
2019-01-17T21:07:28.313Z,30.60
2019-01-17T21:10:03.772Z,25.33
2019-01-17T21:12:37.506Z,27.13
2019-01-17T21:15:12.657Z,21.87
2019-01-17T21:17:47.122Z,28.67
2019-01-17T21:20:20.978Z,39.57
2019-01-17T21:22:54.681Z,16.00
2019-01-17T21:25:31.597Z,42.87
2019-01-17T21:28:05.546Z,39.27
2019-01-17T21:30:39.247Z,25.87
2019-01-17T21:33:13.374Z,32.80
2019-01-17T21:35:47.489Z,20.07
2019-01-17T21:38:22.915Z,18.70
2019-01-17T21:40:58.484Z,35.17
2019-01-17T21:43:34.693Z,35.10
2019-01-17T21:46:08.398Z,30.17
2019-01-17T21:48:42.154Z,18.70
2019-01-17T21:51:15.822Z,27.80
2019-01-17T21:53:50.936Z,24.70
2019-01-17T21:56:25.209Z,14.87
2019-01-17T21:58:58.891Z,14.17
2019-01-17T22:01:32.906Z,27.80
2019-01-17T22:04:06.779Z,25.70
2019-01-17T22:06:57.540Z,28.07
2019-01-17T22:09:30.788Z,25.37
2019-01-17T22:12:05.166Z,19.23
2019-01-17T22:14:39.134Z,19.70
2019-01-17T22:17:13.107Z,14.33
2019-01-17T22:19:47.986Z,9.87
2019-01-17T22:22:21.742Z,10.57
2019-01-17T22:24:55.522Z,13.90
2019-01-17T22:27:29.156Z,28.43
2019-01-17T22:30:02.704Z,13.73
2019-01-17T22:32:36.350Z,22.23
2019-01-17T22:35:10.097Z,21.77
2019-01-17T22:37:44.116Z,14.73
2019-01-17T22:40:18.246Z,13.93
2019-01-17T22:42:52.111Z,16.87
2019-01-17T22:45:31.234Z,18.73
2019-01-17T22:48:05.263Z,24.83
2019-01-17T22:50:39.168Z,14.80
2019-01-17T22:53:13.145Z,11.47
2019-01-17T22:55:46.877Z,16.80
2019-01-17T22:58:20.618Z,23.90
2019-01-17T23:01:19.967Z,17.57
2019-01-17T23:03:55.207Z,23.70
2019-01-17T23:06:30.157Z,9.17
2019-01-17T23:09:04.935Z,15.77
2019-01-17T23:11:38.757Z,14.93
2019-01-17T23:14:12.453Z,8.43
2019-01-17T23:16:47.163Z,19.33
2019-01-17T23:19:21.190Z,17.23
2019-01-17T23:21:55.948Z,8.17
2019-01-17T23:24:29.674Z,21.13
2019-01-17T23:27:03.844Z,16.67
2019-01-17T23:29:37.919Z,17.80
2019-01-17T23:32:12.066Z,8.50
2019-01-17T23:34:45.988Z,8.67
2019-01-17T23:37:19.705Z,8.73
2019-01-17T23:39:53.404Z,8.80
2019-01-17T23:42:26.976Z,24.40
2019-01-17T23:45:00.911Z,24.13
2019-01-17T23:47:34.640Z,10.57
2019-01-17T23:50:08.875Z,7.77
2019-01-17T23:52:42.475Z,7.53
2019-01-17T23:55:16.656Z,12.50
2019-01-17T23:57:49.994Z,18.00
